Ikan Parang — 9V9099 — position and weather

sailwx.info

Track history (hours):
 
Tides and Currents Weather Stations Pressure Air Temp Water Temp Dewpoint Dewpoint Depression Visibility Wind Speed Wind Dir Waves Ship Positions

Ikan Parang

Last reported at 2015-Feb-22 07:32 UTC. Time now 2015-Mar-07 01:41 UTC.
Position S 28°52' E 032°10'.
Warning: this ship's position is 12 days out of date.

Length 183 m; draft 6.4 m.

Type: Cargo ship. MMSI: 566238000.

Date/timePositionNaut miles runAvg speedWind from/ knotsBaromVisibWave heightAir tempDewpointWater temp
2015-Feb-22 07:32S 28°52' E 032°10'4 0.2
2015-Feb-21 11:17S 28°56' E 032°12'0 0.0
2015-Feb-21 03:23S 28°55' E 032°12'0 0.0
2015-Feb-20 22:17S 28°55' E 032°12'0 0.0
2015-Feb-20 21:29S 28°55' E 032°12'0 0.0
2015-Feb-19 17:11S 28°55' E 032°12'0 0.0
2015-Feb-19 16:29S 28°55' E 032°12'0 0.0
2015-Feb-19 15:29S 28°55' E 032°12'0 0.0
2015-Feb-19 14:23S 28°55' E 032°12'0 0.0
2015-Feb-19 11:05S 28°55' E 032°12'0 0.0
2015-Feb-19 10:17S 28°55' E 032°12'0 0.0
2015-Feb-19 08:29S 28°55' E 032°12'  
2015-Feb-16 18:10S 28°55' E 032°12'0 0.0
2015-Feb-15 17:04S 28°55' E 032°12'0 0.0
2015-Feb-15 01:28S 28°55' E 032°12'32 1.3
2015-Feb-14 01:31S 29°26' E 031°59'8 8.5
2015-Feb-14 00:33S 29°32' E 031°53'8 8.2
2015-Feb-13 23:33S 29°38' E 031°46'9 9.0
2015-Feb-13 22:33S 29°41' E 031°36'1010.3
2015-Feb-13 21:33S 29°44' E 031°25'10 9.9
2015-Feb-13 20:33S 29°48' E 031°15'9 9.3
2015-Feb-13 19:33S 29°51' E 031°05'4 4.3
2015-Feb-13 18:33S 29°53' E 031°00'0 0.2
2015-Feb-13 17:29S 29°53' E 031°00'0 0.0
2015-Feb-13 16:29S 29°53' E 031°00'0 0.0
2015-Feb-13 15:29S 29°53' E 031°00'0 0.0
2015-Feb-13 14:29S 29°53' E 031°00'0 0.0
2015-Feb-13 13:29S 29°53' E 031°00'0 0.0
2015-Feb-13 12:29S 29°53' E 031°00'0 0.0
2015-Feb-13 11:29S 29°53' E 031°00'0 0.0
2015-Feb-13 10:29S 29°53' E 031°00'0 0.0
2015-Feb-13 09:29S 29°53' E 031°00'0 0.0
2015-Feb-13 08:23S 29°53' E 031°00'0 0.0
2015-Feb-13 07:23S 29°53' E 031°00'0 0.0
2015-Feb-13 06:29S 29°53' E 031°00'0 0.0
2015-Feb-13 05:29S 29°53' E 031°00'0 0.0
2015-Feb-13 04:29S 29°53' E 031°00'0 0.0
2015-Feb-13 03:29S 29°53' E 031°00'0 0.0
2015-Feb-13 02:29S 29°53' E 031°00'0 0.0
2015-Feb-13 01:29S 29°53' E 031°00'0 0.0
2015-Feb-13 00:23S 29°53' E 031°00'0 0.0
2015-Feb-12 23:29S 29°53' E 031°00'0 0.0
2015-Feb-12 22:29S 29°53' E 031°00'0 0.0
2015-Feb-12 21:29S 29°53' E 031°00'0 0.0
2015-Feb-12 20:29S 29°53' E 031°00'0 0.0
2015-Feb-12 19:29S 29°53' E 031°00'0 0.0
2015-Feb-12 18:29S 29°53' E 031°00'0 0.0
2015-Feb-12 17:29S 29°53' E 031°00'0 0.0
2015-Feb-12 16:29S 29°53' E 031°00'0 0.0
2015-Feb-12 15:29S 29°53' E 031°00'0 0.0
2015-Feb-12 14:29S 29°53' E 031°00'0 0.0
2015-Feb-12 13:29S 29°53' E 031°00'0 0.0
2015-Feb-12 12:29S 29°53' E 031°00'0 0.0
2015-Feb-12 11:29S 29°53' E 031°00'0 0.0
2015-Feb-12 10:29S 29°53' E 031°00'0 0.0
2015-Feb-12 09:29S 29°53' E 031°00'0 0.0
2015-Feb-12 08:29S 29°53' E 031°00'  
Track history (hours):
 
Tides and Currents Weather Stations Pressure Air Temp Water Temp Dewpoint Dewpoint Depression Visibility Wind Speed Wind Dir Waves Ship Positions

Ikan Parang

Last reported at 2015-Feb-22 07:32 UTC. Time now 2015-Mar-07 01:41 UTC.
Position S 28°52' E 032°10'.
Warning: this ship's position is 12 days out of date.

Length 183 m; draft 6.4 m.

Type: Cargo ship. MMSI: 566238000.

Date/timePositionNaut miles runAvg speedWind from/ knotsBaromVisibWave heightAir tempDewpointWater temp
2015-Feb-22 07:32S 28°52' E 032°10'4 0.2
2015-Feb-21 11:17S 28°56' E 032°12'0 0.0
2015-Feb-21 03:23S 28°55' E 032°12'0 0.0
2015-Feb-20 22:17S 28°55' E 032°12'0 0.0
2015-Feb-20 21:29S 28°55' E 032°12'0 0.0
2015-Feb-19 17:11S 28°55' E 032°12'0 0.0
2015-Feb-19 16:29S 28°55' E 032°12'0 0.0
2015-Feb-19 15:29S 28°55' E 032°12'0 0.0
2015-Feb-19 14:23S 28°55' E 032°12'0 0.0
2015-Feb-19 11:05S 28°55' E 032°12'0 0.0
2015-Feb-19 10:17S 28°55' E 032°12'0 0.0
2015-Feb-19 08:29S 28°55' E 032°12'  
2015-Feb-16 18:10S 28°55' E 032°12'0 0.0
2015-Feb-15 17:04S 28°55' E 032°12'0 0.0
2015-Feb-15 01:28S 28°55' E 032°12'32 1.3
2015-Feb-14 01:31S 29°26' E 031°59'8 8.5
2015-Feb-14 00:33S 29°32' E 031°53'8 8.2
2015-Feb-13 23:33S 29°38' E 031°46'9 9.0
2015-Feb-13 22:33S 29°41' E 031°36'1010.3
2015-Feb-13 21:33S 29°44' E 031°25'10 9.9
2015-Feb-13 20:33S 29°48' E 031°15'9 9.3
2015-Feb-13 19:33S 29°51' E 031°05'4 4.3
2015-Feb-13 18:33S 29°53' E 031°00'0 0.2
2015-Feb-13 17:29S 29°53' E 031°00'0 0.0
2015-Feb-13 16:29S 29°53' E 031°00'0 0.0
2015-Feb-13 15:29S 29°53' E 031°00'0 0.0
2015-Feb-13 14:29S 29°53' E 031°00'0 0.0
2015-Feb-13 13:29S 29°53' E 031°00'0 0.0
2015-Feb-13 12:29S 29°53' E 031°00'0 0.0
2015-Feb-13 11:29S 29°53' E 031°00'0 0.0
2015-Feb-13 10:29S 29°53' E 031°00'0 0.0
2015-Feb-13 09:29S 29°53' E 031°00'0 0.0
2015-Feb-13 08:23S 29°53' E 031°00'0 0.0
2015-Feb-13 07:23S 29°53' E 031°00'0 0.0
2015-Feb-13 06:29S 29°53' E 031°00'0 0.0
2015-Feb-13 05:29S 29°53' E 031°00'0 0.0
2015-Feb-13 04:29S 29°53' E 031°00'0 0.0
2015-Feb-13 03:29S 29°53' E 031°00'0 0.0
2015-Feb-13 02:29S 29°53' E 031°00'0 0.0
2015-Feb-13 01:29S 29°53' E 031°00'0 0.0
2015-Feb-13 00:23S 29°53' E 031°00'0 0.0
2015-Feb-12 23:29S 29°53' E 031°00'0 0.0
2015-Feb-12 22:29S 29°53' E 031°00'0 0.0
2015-Feb-12 21:29S 29°53' E 031°00'0 0.0
2015-Feb-12 20:29S 29°53' E 031°00'0 0.0
2015-Feb-12 19:29S 29°53' E 031°00'0 0.0
2015-Feb-12 18:29S 29°53' E 031°00'0 0.0
2015-Feb-12 17:29S 29°53' E 031°00'0 0.0
2015-Feb-12 16:29S 29°53' E 031°00'0 0.0
2015-Feb-12 15:29S 29°53' E 031°00'0 0.0
2015-Feb-12 14:29S 29°53' E 031°00'0 0.0
2015-Feb-12 13:29S 29°53' E 031°00'0 0.0
2015-Feb-12 12:29S 29°53' E 031°00'0 0.0
2015-Feb-12 11:29S 29°53' E 031°00'0 0.0
2015-Feb-12 10:29S 29°53' E 031°00'0 0.0
2015-Feb-12 09:29S 29°53' E 031°00'0 0.0
2015-Feb-12 08:29S 29°53' E 031°00'  

Dump ship's entire track history